Time;durP1;ratioP1;P1;durP2;ratioP2;P2;SDS_P1;SDS_P2;PMS_P1;PMS_P2;Temp;Humidity;BMP_temperature;BMP_pressure;BME280_temperature;BME280_humidity;BME280_pressure;Samples;Min_cycle;Max_cycle;Signal;HPM_P1;HPM_P2
2022/09/06 00:00:38;;;;;;;;;;;;;;;23.46;58.28;101309.59;1029317;28;595;-74
2022/09/06 00:01:29;;;;;;;;;;;;;;;23.47;58.58;101321.28;1024561;29;666;-74
2022/09/06 00:02:19;;;;;;;;;;;;;;;23.47;58.46;101311.25;1025643;28;630;-74
2022/09/06 00:03:10;;;;;;;;;;;;;;;23.45;58.94;101309.75;1028760;28;685;-74
2022/09/06 00:04:00;;;;;;;;;;;;;;;23.45;58.29;101309.75;1029321;28;698;-75
2022/09/06 00:04:50;;;;;;;;;;;;;;;23.44;58.70;101316.22;1029254;28;724;-75
2022/09/06 00:05:42;;;;;;;;;;;;;;;23.42;59.27;101310.09;1024484;29;702;-75
2022/09/06 00:06:33;;;;;;;;;;;;;;;23.42;59.13;101312.81;1025545;28;698;-75
2022/09/06 00:07:23;;;;;;;;;;;;;;;23.41;59.05;101305.66;1028797;28;705;-75
2022/09/06 00:08:13;;;;;;;;;;;;;;;23.41;58.71;101305.66;1029264;28;644;-75
2022/09/06 00:09:04;;;;;;;;;;;;;;;23.42;58.89;101301.94;1029325;28;563;-75
2022/09/06 00:09:55;;;;;;;;;;;;;;;23.41;58.24;101298.34;1029276;28;644;-75
2022/09/06 00:10:46;;;;;;;;;;;;;;;23.43;58.39;101299.03;1024401;29;684;-74
2022/09/06 00:11:37;;;;;;;;;;;;;;;23.45;58.23;101296.16;1025599;28;645;-74
2022/09/06 00:12:27;;;;;;;;;;;;;;;23.45;58.15;101291.56;1028919;28;669;-75
2022/09/06 00:13:18;;;;;;;;;;;;;;;23.46;58.58;101293.25;1028660;28;661;-74
2022/09/06 00:14:08;;;;;;;;;;;;;;;23.47;58.17;101294.06;1029290;28;674;-75
2022/09/06 00:14:59;;;;;;;;;;;;;;;23.47;58.06;101286.78;1029262;28;694;-75
2022/09/06 00:15:49;;;;;;;;;;;;;;;23.48;58.14;101290.34;1028138;28;679;-75
2022/09/06 00:16:40;;;;;;;;;;;;;;;23.47;58.21;101294.06;1029314;28;614;-74
2022/09/06 00:17:30;;;;;;;;;;;;;;;23.49;58.52;101292.03;1028666;28;690;-75
2022/09/06 00:18:20;;;;;;;;;;;;;;;23.48;58.66;101291.19;1028525;28;611;-74
2022/09/06 00:19:11;;;;;;;;;;;;;;;23.47;58.26;101289.50;1027816;28;575;-75
2022/09/06 00:20:01;;;;;;;;;;;;;;;23.48;58.23;101284.91;1028161;28;1911;-74
2022/09/06 00:20:52;;;;;;;;;;;;;;;23.49;58.02;101292.03;1028757;28;630;-74
2022/09/06 00:21:42;;;;;;;;;;;;;;;23.48;58.45;101284.91;1028765;28;619;-75
2022/09/06 00:22:33;;;;;;;;;;;;;;;23.49;58.04;101282.00;1028770;28;773;-74
2022/09/06 00:23:23;;;;;;;;;;;;;;;23.49;58.33;101276.56;1028741;28;581;-75
2022/09/06 00:24:13;;;;;;;;;;;;;;;23.50;58.28;101277.41;1028355;28;669;-75
2022/09/06 00:25:05;;;;;;;;;;;;;;;23.50;58.40;101277.41;1028752;28;591;-75
2022/09/06 00:25:55;;;;;;;;;;;;;;;23.50;58.26;101285.56;1028857;28;645;-75
2022/09/06 00:26:46;;;;;;;;;;;;;;;23.48;58.70;101274.00;1029591;28;646;-75
2022/09/06 00:27:36;;;;;;;;;;;;;;;23.48;58.42;101276.75;1029406;28;579;-74
2022/09/06 00:28:26;;;;;;;;;;;;;;;23.49;58.50;101275.72;1029519;28;721;-74
2022/09/06 00:29:17;;;;;;;;;;;;;;;23.49;58.42;101275.72;1029454;28;634;-75
2022/09/06 00:30:07;;;;;;;;;;;;;;;23.49;58.39;101276.56;1029376;28;752;-74
2022/09/06 00:30:58;;;;;;;;;;;;;;;23.48;58.33;101276.75;1029150;28;737;-74
2022/09/06 00:31:48;;;;;;;;;;;;;;;23.48;58.25;101284.91;1028521;28;612;-74
2022/09/06 00:32:40;;;;;;;;;;;;;;;23.48;58.33;101285.75;1028953;28;666;-74
2022/09/06 00:33:30;;;;;;;;;;;;;;;23.48;58.38;101276.75;1028811;28;632;-75
2022/09/06 00:34:20;;;;;;;;;;;;;;;23.48;58.29;101282.19;1028427;28;627;-74
2022/09/06 00:35:11;;;;;;;;;;;;;;;23.48;58.18;101280.31;1029455;28;697;-74
2022/09/06 00:36:01;;;;;;;;;;;;;;;23.45;58.34;101280.69;1029249;28;1104;-74
2022/09/06 00:36:52;;;;;;;;;;;;;;;23.44;58.49;101275.41;1029551;28;642;-74
2022/09/06 00:37:42;;;;;;;;;;;;;;;23.44;58.44;101273.53;1028870;28;697;-74
2022/09/06 00:38:32;;;;;;;;;;;;;;;23.46;58.49;101276.09;1029066;28;748;-75
2022/09/06 00:39:23;;;;;;;;;;;;;;;23.46;58.24;101282.38;1028835;28;622;-74
2022/09/06 00:40:13;;;;;;;;;;;;;;;23.47;58.36;101284.03;1029455;28;721;-74
2022/09/06 00:41:04;;;;;;;;;;;;;;;23.48;58.07;101284.91;1029502;28;743;-74
2022/09/06 00:41:54;;;;;;;;;;;;;;;23.47;58.08;101285.91;1029488;28;650;-75
2022/09/06 00:42:45;;;;;;;;;;;;;;;23.48;57.93;101298.50;1029486;28;741;-75
2022/09/06 00:43:35;;;;;;;;;;;;;;;23.48;58.27;101299.34;1029412;28;587;-75
2022/09/06 00:44:25;;;;;;;;;;;;;;;23.47;57.98;101299.53;1029452;28;692;-74
2022/09/06 00:45:16;;;;;;;;;;;;;;;23.48;58.13;101303.94;1029086;28;748;-75
2022/09/06 00:46:06;;;;;;;;;;;;;;;23.47;57.83;101310.41;1031883;28;1461;-75
2022/09/06 00:46:57;;;;;;;;;;;;;;;23.48;58.09;101312.09;1029205;28;634;-74
2022/09/06 00:47:47;;;;;;;;;;;;;;;23.47;57.77;101319.41;1029422;28;1421;-74
2022/09/06 00:48:38;;;;;;;;;;;;;;;23.48;58.19;101312.09;1032954;28;758;-74
2022/09/06 00:49:28;;;;;;;;;;;;;;;23.46;58.28;101316.91;1033443;28;643;-74
2022/09/06 00:50:19;;;;;;;;;;;;;;;23.46;57.84;101317.75;1034029;28;631;-73
2022/09/06 00:51:09;;;;;;;;;;;;;;;23.46;58.28;101306.00;1033446;28;623;-73
2022/09/06 00:51:59;;;;;;;;;;;;;;;23.45;58.55;101310.59;1029408;28;877;-74
2022/09/06 00:52:50;;;;;;;;;;;;;;;23.45;58.48;101309.75;1027306;28;1277;-73
2022/09/06 00:53:40;;;;;;;;;;;;;;;23.44;58.80;101299.88;1027713;28;667;-73
2022/09/06 00:54:31;;;;;;;;;;;;;;;23.42;58.79;101310.09;1029474;28;706;-74
2022/09/06 00:55:21;;;;;;;;;;;;;;;23.42;58.75;101310.09;1029041;28;721;-73
2022/09/06 00:56:12;;;;;;;;;;;;;;;23.39;58.55;101305.84;1028571;28;678;-74
2022/09/06 00:57:02;;;;;;;;;;;;;;;23.39;59.02;101302.28;1029267;28;787;-73
2022/09/06 00:57:53;;;;;;;;;;;;;;;23.39;59.15;101310.44;1028438;28;663;-73
2022/09/06 00:58:43;;;;;;;;;;;;;;;23.38;59.23;101311.44;1029330;28;653;-73
2022/09/06 00:59:33;;;;;;;;;;;;;;;23.40;58.64;101314.84;1029443;28;631;-73
2022/09/06 01:00:24;;;;;;;;;;;;;;;23.34;59.60;101321.81;1029267;28;619;-74
2022/09/06 01:01:14;;;;;;;;;;;;;;;23.35;59.39;101319.94;1029216;28;619;-73
2022/09/06 01:02:05;;;;;;;;;;;;;;;23.20;60.12;101326.06;1029339;28;694;-73
2022/09/06 01:02:56;;;;;;;;;;;;;;;23.25;59.79;101317.41;1028415;28;614;-73
2022/09/06 01:03:46;;;;;;;;;;;;;;;23.29;59.08;101312.50;1029294;28;634;-73
2022/09/06 01:04:37;;;;;;;;;;;;;;;23.33;58.81;101313.81;1029329;28;643;-73
2022/09/06 01:05:27;;;;;;;;;;;;;;;23.33;59.24;101308.38;1029233;28;635;-73
2022/09/06 01:06:18;;;;;;;;;;;;;;;23.35;59.20;101309.06;1029379;28;666;-73
2022/09/06 01:07:09;;;;;;;;;;;;;;;23.36;58.87;101305.31;1028253;28;674;-72
2022/09/06 01:07:59;;;;;;;;;;;;;;;23.35;58.96;101295.47;1029312;28;612;-72
2022/09/06 01:08:50;;;;;;;;;;;;;;;23.36;58.95;101289.84;1029023;28;1062;-73
2022/09/06 01:09:40;;;;;;;;;;;;;;;23.37;58.55;101283.41;1029537;28;698;-73
2022/09/06 01:10:31;;;;;;;;;;;;;;;23.39;58.99;101280.50;1028302;28;682;-73
2022/09/06 01:11:21;;;;;;;;;;;;;;;23.41;58.51;101283.91;1028649;28;678;-73
2022/09/06 01:12:12;;;;;;;;;;;;;;;23.41;58.51;101279.31;1029829;28;605;-74
2022/09/06 01:13:02;;;;;;;;;;;;;;;23.41;58.47;101276.59;1032784;28;1408;-73
2022/09/06 01:13:52;;;;;;;;;;;;;;;23.41;58.90;101279.31;1033920;28;693;-74
2022/09/06 01:14:43;;;;;;;;;;;;;;;23.40;58.62;101274.91;1033315;28;619;-74
2022/09/06 01:15:33;;;;;;;;;;;;;;;23.40;58.90;101279.50;1032645;28;603;-74
2022/09/06 01:16:24;;;;;;;;;;;;;;;23.41;58.88;101273.03;1033788;28;626;-74
2022/09/06 01:17:14;;;;;;;;;;;;;;;23.41;58.88;101267.59;1033896;28;615;-74
2022/09/06 01:18:05;;;;;;;;;;;;;;;23.41;58.43;101273.03;1032180;28;633;-74
2022/09/06 01:18:56;;;;;;;;;;;;;;;23.42;59.30;101274.72;1033877;28;694;-73
2022/09/06 01:19:46;;;;;;;;;;;;;;;23.41;59.08;101273.03;1033813;28;1918;-73
2022/09/06 01:20:38;;;;;;;;;;;;;;;23.42;59.17;101288.31;1033866;28;634;-73
2022/09/06 01:21:28;;;;;;;;;;;;;;;23.42;58.82;101293.78;1033282;28;634;-73
2022/09/06 01:22:18;;;;;;;;;;;;;;;23.40;58.93;101287.66;1033406;28;611;-74
2022/09/06 01:23:09;;;;;;;;;;;;;;;23.41;59.16;101289.34;1032785;28;705;-74
2022/09/06 01:23:59;;;;;;;;;;;;;;;23.41;58.86;101284.75;1033748;28;628;-73
2022/09/06 01:24:50;;;;;;;;;;;;;;;23.42;59.17;101288.31;1033819;28;656;-73
2022/09/06 01:25:40;;;;;;;;;;;;;;;23.42;58.87;101294.63;1033820;28;674;-74
2022/09/06 01:26:31;;;;;;;;;;;;;;;23.42;59.19;101297.34;1033776;28;563;-74
2022/09/06 01:27:21;;;;;;;;;;;;;;;23.42;58.89;101297.34;1033259;28;709;-73
2022/09/06 01:28:11;;;;;;;;;;;;;;;23.41;58.89;101290.19;1033729;28;701;-74
2022/09/06 01:29:02;;;;;;;;;;;;;;;23.43;59.03;101290.03;1033792;28;638;-74
2022/09/06 01:29:52;;;;;;;;;;;;;;;23.41;59.38;101284.75;1033883;28;650;-74
2022/09/06 01:30:43;;;;;;;;;;;;;;;23.41;59.31;101286.63;1033855;28;646;-74
2022/09/06 01:31:34;;;;;;;;;;;;;;;23.41;59.38;101282.03;1033759;28;634;-73
2022/09/06 01:32:24;;;;;;;;;;;;;;;23.38;59.33;101285.09;1033194;28;630;-74
2022/09/06 01:33:15;;;;;;;;;;;;;;;23.39;59.42;101285.94;1032709;28;634;-74
2022/09/06 01:34:05;;;;;;;;;;;;;;;23.39;59.21;101285.94;1033873;28;626;-74
2022/09/06 01:34:56;;;;;;;;;;;;;;;23.37;59.68;101283.41;1033818;28;713;-75
2022/09/06 01:35:46;;;;;;;;;;;;;;;23.38;59.50;101278.81;1033790;28;646;-75
2022/09/06 01:36:37;;;;;;;;;;;;;;;23.38;59.67;101285.09;1032732;28;572;-74
2022/09/06 01:37:27;;;;;;;;;;;;;;;23.38;60.20;101276.94;1033836;28;702;-74
2022/09/06 01:38:17;;;;;;;;;;;;;;;23.38;59.66;101281.53;1033839;28;753;-75
2022/09/06 01:39:08;;;;;;;;;;;;;;;23.38;59.66;101276.09;1032782;28;643;-74
2022/09/06 01:39:58;;;;;;;;;;;;;;;23.38;59.74;101270.66;1033849;28;1903;-74
2022/09/06 01:40:49;;;;;;;;;;;;;;;23.37;60.28;101266.22;1033598;28;1404;-75
2022/09/06 01:41:39;;;;;;;;;;;;;;;23.36;59.73;101275.41;1033661;28;1312;-75
2022/09/06 01:42:29;;;;;;;;;;;;;;;23.36;60.18;101265.38;1033777;28;610;-75
2022/09/06 01:43:20;;;;;;;;;;;;;;;23.35;59.70;101266.41;1033473;28;1412;-75
2022/09/06 01:44:10;;;;;;;;;;;;;;;23.35;60.26;101266.41;1028947;28;655;-75
2022/09/06 01:45:01;;;;;;;;;;;;;;;23.36;60.08;101275.41;1029918;28;720;-74
2022/09/06 01:45:51;;;;;;;;;;;;;;;23.35;60.02;101269.13;1033839;28;690;-75
2022/09/06 01:46:42;;;;;;;;;;;;;;;23.37;60.20;101271.66;1033835;28;666;-75
2022/09/06 01:47:32;;;;;;;;;;;;;;;23.36;59.69;101270.81;1033738;28;611;-75
2022/09/06 01:48:22;;;;;;;;;;;;;;;23.35;59.57;101265.53;1033729;28;646;-75
2022/09/06 01:49:13;;;;;;;;;;;;;;;23.37;59.81;101255.34;1033603;28;631;-75
2022/09/06 01:50:03;;;;;;;;;;;;;;;23.36;59.58;101254.50;1033795;28;670;-75
2022/09/06 01:50:54;;;;;;;;;;;;;;;23.36;59.98;101248.22;1033401;28;658;-75
2022/09/06 01:51:45;;;;;;;;;;;;;;;23.34;60.11;101251.09;1033764;28;646;-75
2022/09/06 01:52:35;;;;;;;;;;;;;;;23.35;59.72;101250.06;1033725;28;721;-74
2022/09/06 01:53:25;;;;;;;;;;;;;;;23.35;60.16;101246.50;1033716;28;646;-75
2022/09/06 01:54:16;;;;;;;;;;;;;;;23.34;59.94;101233.94;1032201;28;634;-75
2022/09/06 01:55:06;;;;;;;;;;;;;;;23.33;60.21;101243.09;1029446;28;678;-75
2022/09/06 01:55:57;;;;;;;;;;;;;;;23.34;60.32;101242.94;1028790;28;697;-74
2022/09/06 01:56:47;;;;;;;;;;;;;;;23.32;59.87;101233.25;1032816;28;1512;-75
2022/09/06 01:57:38;;;;;;;;;;;;;;;23.33;60.56;101232.22;1032255;28;737;-75
2022/09/06 01:58:28;;;;;;;;;;;;;;;23.31;60.74;101224.25;1032851;28;647;-75
2022/09/06 01:59:18;;;;;;;;;;;;;;;23.30;60.84;101222.53;1033061;28;662;-75
2022/09/06 02:00:09;;;;;;;;;;;;;;;23.30;60.46;101216.25;1032815;28;1891;-75
2022/09/06 02:00:59;;;;;;;;;;;;;;;23.28;60.17;101221.03;1033499;28;618;-75
2022/09/06 02:01:50;;;;;;;;;;;;;;;23.27;60.27;101216.63;1037232;28;635;-75
2022/09/06 02:02:41;;;;;;;;;;;;;;;23.26;60.05;101210.34;1036063;28;685;-75
2022/09/06 02:03:31;;;;;;;;;;;;;;;23.27;60.34;101205.75;1035887;28;674;-75
2022/09/06 02:04:21;;;;;;;;;;;;;;;23.25;60.69;101207.78;1036653;28;573;-76
2022/09/06 02:05:12;;;;;;;;;;;;;;;23.26;60.02;101198.59;1036208;28;725;-75
2022/09/06 02:06:02;;;;;;;;;;;;;;;23.24;60.00;101198.78;1036722;28;606;-75
2022/09/06 02:06:53;;;;;;;;;;;;;;;23.24;60.58;101197.94;1036134;28;627;-75
2022/09/06 02:07:43;;;;;;;;;;;;;;;23.23;60.38;101193.50;1035948;28;650;-74
2022/09/06 02:08:34;;;;;;;;;;;;;;;23.22;60.33;101187.22;1036108;28;606;-74
2022/09/06 02:09:24;;;;;;;;;;;;;;;23.22;60.23;101189.09;1036571;28;661;-74
2022/09/06 02:10:15;;;;;;;;;;;;;;;23.20;60.27;101179.22;1036163;28;939;-74
2022/09/06 02:11:05;;;;;;;;;;;;;;;23.20;60.38;101176.50;1032937;28;1423;-75
2022/09/06 02:11:56;;;;;;;;;;;;;;;23.20;60.71;101168.34;1027975;28;702;-74
2022/09/06 02:12:46;;;;;;;;;;;;;;;23.22;59.93;101170.06;1031831;28;1439;-74
2022/09/06 02:13:36;;;;;;;;;;;;;;;23.21;59.82;101166.50;1033548;28;551;-74
2022/09/06 02:14:27;;;;;;;;;;;;;;;23.20;60.02;101157.47;1033638;28;670;-74
2022/09/06 02:15:17;;;;;;;;;;;;;;;23.19;60.13;101155.78;1033680;28;598;-74
2022/09/06 02:16:08;;;;;;;;;;;;;;;23.19;59.88;101147.63;1033658;28;662;-75
2022/09/06 02:16:58;;;;;;;;;;;;;;;23.20;59.51;101146.59;1033686;28;535;-74
2022/09/06 02:17:49;;;;;;;;;;;;;;;23.22;59.86;101146.44;1033703;28;745;-74
2022/09/06 02:18:39;;;;;;;;;;;;;;;23.21;59.89;101144.72;1033657;28;674;-74
2022/09/06 02:19:29;;;;;;;;;;;;;;;23.22;59.49;101137.44;1028693;28;660;-74
2022/09/06 02:20:20;;;;;;;;;;;;;;;23.23;59.42;101144.56;1029318;28;669;-74
2022/09/06 02:21:10;;;;;;;;;;;;;;;23.22;59.31;101140.16;1028300;28;928;-74
2022/09/06 02:22:01;;;;;;;;;;;;;;;23.22;59.15;101148.31;1029285;28;674;-74
2022/09/06 02:22:51;;;;;;;;;;;;;;;23.25;59.07;101150.69;1033278;28;843;-75
2022/09/06 02:23:41;;;;;;;;;;;;;;;23.24;59.71;101149.81;1033247;28;689;-75
2022/09/06 02:24:32;;;;;;;;;;;;;;;23.24;59.73;101147.09;1028733;28;706;-74
2022/09/06 02:25:22;;;;;;;;;;;;;;;23.25;59.35;101147.97;1029425;28;607;-74
2022/09/06 02:26:13;;;;;;;;;;;;;;;23.24;59.26;101149.81;1032846;28;733;-74
2022/09/06 02:27:03;;;;;;;;;;;;;;;23.23;59.53;101144.56;1033442;28;558;-75
2022/09/06 02:27:54;;;;;;;;;;;;;;;23.22;59.35;101145.59;1033202;28;614;-75
2022/09/06 02:28:44;;;;;;;;;;;;;;;23.23;59.36;101144.56;1033394;28;638;-75
2022/09/06 02:29:34;;;;;;;;;;;;;;;23.24;59.00;101146.25;1028679;28;610;-74
2022/09/06 02:30:25;;;;;;;;;;;;;;;23.24;59.17;101138.09;1029820;28;645;-74
2022/09/06 02:31:15;;;;;;;;;;;;;;;23.23;59.35;101141.84;1031909;28;635;-75
2022/09/06 02:32:06;;;;;;;;;;;;;;;23.23;58.94;101145.41;1033695;28;634;-74
2022/09/06 02:32:56;;;;;;;;;;;;;;;23.23;59.11;101144.56;1033572;28;623;-75
2022/09/06 02:33:47;;;;;;;;;;;;;;;23.23;59.11;101148.13;1033470;28;728;-75
2022/09/06 02:34:38;;;;;;;;;;;;;;;23.24;59.02;101146.25;1033163;28;712;-75
2022/09/06 02:35:29;;;;;;;;;;;;;;;23.24;58.82;101147.09;1032973;28;701;-75
2022/09/06 02:36:19;;;;;;;;;;;;;;;23.25;59.16;101137.09;1033659;28;701;-75
2022/09/06 02:37:10;;;;;;;;;;;;;;;23.26;58.74;101152.38;1033480;28;724;-75
2022/09/06 02:38:00;;;;;;;;;;;;;;;23.25;59.42;101145.25;1033640;28;710;-75
2022/09/06 02:38:51;;;;;;;;;;;;;;;23.25;58.77;101153.41;1033450;28;642;-75
2022/09/06 02:39:41;;;;;;;;;;;;;;;23.25;58.91;101153.41;1033537;28;631;-76
2022/09/06 02:40:31;;;;;;;;;;;;;;;23.25;58.59;101146.09;1033271;28;1432;-75
2022/09/06 02:41:22;;;;;;;;;;;;;;;23.27;58.66;101143.19;1029392;28;782;-76
2022/09/06 02:42:13;;;;;;;;;;;;;;;23.25;58.54;101142.53;1028590;28;647;-76
2022/09/06 02:43:03;;;;;;;;;;;;;;;23.27;59.11;101145.91;1028929;28;552;-76
2022/09/06 02:43:54;;;;;;;;;;;;;;;23.25;58.75;101131.66;1028980;28;635;-76
2022/09/06 02:44:44;;;;;;;;;;;;;;;23.26;58.63;101134.19;1028928;28;619;-76
2022/09/06 02:45:35;;;;;;;;;;;;;;;23.26;58.80;101144.22;1028928;28;670;-75
2022/09/06 02:46:25;;;;;;;;;;;;;;;23.25;58.90;101139.81;1028408;28;754;-76
2022/09/06 02:47:15;;;;;;;;;;;;;;;23.25;58.81;101139.81;1028937;28;583;-76
2022/09/06 02:48:06;;;;;;;;;;;;;;;23.23;58.59;101134.53;1028782;28;635;-77
2022/09/06 02:48:56;;;;;;;;;;;;;;;23.24;58.96;101128.06;1028574;28;678;-76
2022/09/06 02:49:47;;;;;;;;;;;;;;;23.25;59.27;101131.66;1028621;28;662;-75
2022/09/06 02:50:37;;;;;;;;;;;;;;;23.25;59.14;101140.66;1028652;28;635;-76
2022/09/06 02:51:28;;;;;;;;;;;;;;;23.25;58.85;101139.81;1028423;28;638;-76
2022/09/06 02:52:18;;;;;;;;;;;;;;;23.25;58.64;101142.53;1028953;28;596;-76
2022/09/06 02:53:09;;;;;;;;;;;;;;;23.25;59.19;101145.25;1032758;28;1210;-75
2022/09/06 02:53:59;;;;;;;;;;;;;;;23.25;58.76;101142.53;1032060;28;642;-75
2022/09/06 02:54:50;;;;;;;;;;;;;;;23.23;58.96;101144.56;1032902;28;682;-75
2022/09/06 02:55:40;;;;;;;;;;;;;;;23.23;58.49;101145.41;1032922;28;630;-75
2022/09/06 02:56:32;;;;;;;;;;;;;;;23.25;58.82;101153.41;1032937;28;650;-75
2022/09/06 02:57:23;;;;;;;;;;;;;;;23.24;58.75;101151.69;1032482;28;625;-75
2022/09/06 02:58:13;;;;;;;;;;;;;;;23.23;58.77;101147.28;1031964;28;683;-75
2022/09/06 02:59:04;;;;;;;;;;;;;;;23.25;58.83;101156.13;1031758;28;666;-75
2022/09/06 02:59:54;;;;;;;;;;;;;;;23.24;58.85;101152.56;1032120;28;1961;-75
2022/09/06 03:00:45;;;;;;;;;;;;;;;23.24;59.15;101149.81;1031857;28;835;-75
2022/09/06 03:01:35;;;;;;;;;;;;;;;23.23;58.91;101155.44;1032259;28;693;-74
2022/09/06 03:02:26;;;;;;;;;;;;;;;23.24;59.31;101146.25;1031864;28;557;-75
2022/09/06 03:03:16;;;;;;;;;;;;;;;23.23;59.23;101148.13;1031972;28;646;-75
2022/09/06 03:04:07;;;;;;;;;;;;;;;23.23;58.86;101150.00;1031741;28;607;-75
2022/09/06 03:04:57;;;;;;;;;;;;;;;23.20;59.23;101154.75;1032857;28;614;-75
2022/09/06 03:05:48;;;;;;;;;;;;;;;23.20;59.17;101154.75;1032818;28;733;-75
2022/09/06 03:06:38;;;;;;;;;;;;;;;23.22;59.50;101153.75;1032266;28;574;-74
2022/09/06 03:07:29;;;;;;;;;;;;;;;23.22;58.80;101151.03;1029060;28;754;-75
2022/09/06 03:08:19;;;;;;;;;;;;;;;23.23;59.11;101144.56;1028587;28;678;-75
2022/09/06 03:09:10;;;;;;;;;;;;;;;23.21;59.20;101144.72;1032355;28;694;-75
2022/09/06 03:10:00;;;;;;;;;;;;;;;23.22;59.09;101148.31;1031631;28;776;-75
2022/09/06 03:10:51;;;;;;;;;;;;;;;23.23;59.38;101150.00;1031221;28;1429;-75
2022/09/06 03:11:41;;;;;;;;;;;;;;;23.23;59.21;101156.28;1033350;28;831;-75
2022/09/06 03:12:31;;;;;;;;;;;;;;;23.23;59.07;101156.28;1033163;28;1400;-75
2022/09/06 03:13:22;;;;;;;;;;;;;;;23.23;59.10;101160.88;1025135;28;682;-74
2022/09/06 03:14:15;;;;;;;;;;;;;;;23.23;59.59;101159.00;1026377;28;681;-75
2022/09/06 03:15:05;;;;;;;;;;;;;;;23.22;59.42;101164.63;1029104;28;641;-75
2022/09/06 03:15:56;;;;;;;;;;;;;;;23.22;59.53;101165.47;1027764;28;619;-75
2022/09/06 03:16:46;;;;;;;;;;;;;;;23.20;59.30;101168.34;1028757;28;658;-75
2022/09/06 03:17:36;;;;;;;;;;;;;;;23.21;59.26;101158.34;1028818;28;619;-75
2022/09/06 03:18:27;;;;;;;;;;;;;;;23.22;59.10;101170.06;1028871;28;649;-75
2022/09/06 03:19:18;;;;;;;;;;;;;;;23.20;59.25;101159.34;1029447;28;654;-75
2022/09/06 03:20:09;;;;;;;;;;;;;;;23.21;59.32;101163.78;1028335;28;1894;-75
2022/09/06 03:20:59;;;;;;;;;;;;;;;23.20;59.28;101160.19;1028747;28;695;-75
2022/09/06 03:21:50;;;;;;;;;;;;;;;23.21;59.44;101166.50;1028841;28;670;-75
2022/09/06 03:22:40;;;;;;;;;;;;;;;23.20;59.30;101162.91;1029150;28;615;-75
2022/09/06 03:23:31;;;;;;;;;;;;;;;23.19;59.42;101169.38;1029174;28;674;-75
2022/09/06 03:24:21;;;;;;;;;;;;;;;23.20;59.39;101167.50;1028587;28;698;-76
2022/09/06 03:25:11;;;;;;;;;;;;;;;23.22;59.42;101170.06;1029084;28;614;-76
2022/09/06 03:26:02;;;;;;;;;;;;;;;23.20;59.64;101172.94;1028878;28;659;-75
2022/09/06 03:26:52;;;;;;;;;;;;;;;23.20;59.48;101175.66;1027914;28;686;-76
2022/09/06 03:27:43;;;;;;;;;;;;;;;23.20;59.28;101179.22;1024530;29;915;-75
2022/09/06 03:28:33;;;;;;;;;;;;;;;23.19;59.71;101182.97;1021983;29;627;-75
2022/09/06 03:29:24;;;;;;;;;;;;;;;23.19;59.83;101182.97;1028783;28;634;-75
2022/09/06 03:30:14;;;;;;;;;;;;;;;23.19;59.31;101180.25;1028822;28;556;-75
2022/09/06 03:31:05;;;;;;;;;;;;;;;23.20;59.49;101184.69;1028721;28;611;-75
2022/09/06 03:31:55;;;;;;;;;;;;;;;23.17;59.56;101176.84;1027853;28;648;-74
2022/09/06 03:32:45;;;;;;;;;;;;;;;23.17;59.06;101182.28;1027312;28;674;-75
2022/09/06 03:33:36;;;;;;;;;;;;;;;23.18;59.24;101180.44;1028320;28;648;-75
2022/09/06 03:34:26;;;;;;;;;;;;;;;23.17;59.04;101179.56;1028279;28;764;-74
2022/09/06 03:35:17;;;;;;;;;;;;;;;23.12;59.90;101184.69;1027708;28;632;-75
2022/09/06 03:36:07;;;;;;;;;;;;;;;23.15;59.65;101183.47;1027719;28;1119;-75
2022/09/06 03:36:57;;;;;;;;;;;;;;;23.14;59.80;101179.91;1028773;28;631;-75
2022/09/06 03:37:48;;;;;;;;;;;;;;;23.16;59.41;101172.44;1029211;28;663;-74
2022/09/06 03:38:38;;;;;;;;;;;;;;;23.16;59.58;101172.44;1027029;28;722;-75
2022/09/06 03:39:29;;;;;;;;;;;;;;;23.17;59.65;101171.41;1027806;28;686;-75
2022/09/06 03:40:19;;;;;;;;;;;;;;;23.17;59.67;101168.69;1028787;28;623;-75
2022/09/06 03:41:10;;;;;;;;;;;;;;;23.15;59.81;101170.75;1028919;28;654;-75
2022/09/06 03:42:00;;;;;;;;;;;;;;;23.16;59.51;101169.72;1028800;28;612;-75
2022/09/06 03:42:51;;;;;;;;;;;;;;;23.17;59.67;101173.28;1028784;28;641;-75
2022/09/06 03:43:41;;;;;;;;;;;;;;;23.16;59.70;101175.16;1028404;28;686;-74
2022/09/06 03:44:32;;;;;;;;;;;;;;;23.17;59.18;101165.97;1028600;28;678;-75
2022/09/06 03:45:22;;;;;;;;;;;;;;;23.16;59.52;101166.16;1028447;28;583;-75
2022/09/06 03:46:12;;;;;;;;;;;;;;;23.15;59.54;101173.47;1028835;28;607;-75
2022/09/06 03:47:03;;;;;;;;;;;;;;;23.15;59.81;101168.03;1028385;28;678;-75
2022/09/06 03:47:53;;;;;;;;;;;;;;;23.13;59.50;101172.78;1028694;28;615;-75
2022/09/06 03:48:44;;;;;;;;;;;;;;;23.14;59.95;101169.03;1027833;28;606;-75
2022/09/06 03:49:34;;;;;;;;;;;;;;;23.15;59.73;101173.47;1028885;28;674;-75
2022/09/06 03:50:24;;;;;;;;;;;;;;;23.16;59.84;101171.59;1029112;28;1424;-75
2022/09/06 03:51:15;;;;;;;;;;;;;;;23.16;59.65;101177.03;1029354;28;658;-75
2022/09/06 03:52:08;;;;;;;;;;;;;;;23.17;59.58;101173.28;1029305;28;611;-75
2022/09/06 03:52:58;;;;;;;;;;;;;;;23.15;59.53;101181.63;1031204;28;1191;-75
2022/09/06 03:53:49;;;;;;;;;;;;;;;23.14;59.48;101179.91;1032729;28;681;-75
2022/09/06 03:54:39;;;;;;;;;;;;;;;23.12;59.50;101179.25;1034153;28;758;-75
2022/09/06 03:55:30;;;;;;;;;;;;;;;23.12;59.35;101176.53;1035750;28;641;-75
2022/09/06 03:56:20;;;;;;;;;;;;;;;23.13;59.44;101186.38;1035934;28;693;-75
2022/09/06 03:57:10;;;;;;;;;;;;;;;23.12;59.19;101172.94;1035769;28;702;-75
2022/09/06 03:58:01;;;;;;;;;;;;;;;23.12;59.35;101171.06;1035768;28;663;-75
2022/09/06 03:58:51;;;;;;;;;;;;;;;23.12;59.42;101172.94;1035588;28;587;-76
2022/09/06 03:59:42;;;;;;;;;;;;;;;23.11;59.37;101179.44;1031332;28;582;-76
2022/09/06 04:00:32;;;;;;;;;;;;;;;23.12;59.42;101173.81;1032189;28;713;-76
2022/09/06 04:01:23;;;;;;;;;;;;;;;23.13;59.75;101178.22;1036659;28;791;-75
2022/09/06 04:02:13;;;;;;;;;;;;;;;23.12;59.54;101181.97;1036373;28;642;-75
2022/09/06 04:03:04;;;;;;;;;;;;;;;23.11;59.78;101180.25;1032145;28;638;-76
2022/09/06 04:03:54;;;;;;;;;;;;;;;23.11;59.71;101179.44;1029256;28;718;-75
2022/09/06 04:04:45;;;;;;;;;;;;;;;23.11;59.37;101176.72;1033201;28;631;-76
2022/09/06 04:05:35;;;;;;;;;;;;;;;23.10;59.33;101184.03;1037244;28;650;-76
2022/09/06 04:06:25;;;;;;;;;;;;;;;23.09;59.29;101190.50;1036513;28;610;-76
2022/09/06 04:07:16;;;;;;;;;;;;;;;23.09;59.86;101182.31;1036639;28;646;-76
2022/09/06 04:08:06;;;;;;;;;;;;;;;23.11;59.70;101184.88;1035813;28;634;-76
2022/09/06 04:08:57;;;;;;;;;;;;;;;23.11;59.48;101182.16;1036491;28;661;-75
2022/09/06 04:09:47;;;;;;;;;;;;;;;23.11;59.29;101191.13;1035939;28;1427;-76
2022/09/06 04:10:38;;;;;;;;;;;;;;;23.08;59.63;101196.94;1033061;28;661;-75
2022/09/06 04:11:28;;;;;;;;;;;;;;;23.10;59.53;101194.91;1032964;28;709;-75
2022/09/06 04:12:19;;;;;;;;;;;;;;;23.12;59.28;101197.41;1033036;28;564;-75
2022/09/06 04:13:09;;;;;;;;;;;;;;;23.12;59.62;101192.84;1033119;28;666;-76
2022/09/06 04:13:59;;;;;;;;;;;;;;;23.10;59.39;101202.22;1033032;28;611;-75
2022/09/06 04:14:50;;;;;;;;;;;;;;;23.08;59.45;101194.22;1033009;28;794;-76
2022/09/06 04:15:40;;;;;;;;;;;;;;;23.07;59.48;101200.69;1032947;28;607;-75
2022/09/06 04:16:31;;;;;;;;;;;;;;;23.08;59.34;101196.09;1032941;28;639;-75
2022/09/06 04:17:21;;;;;;;;;;;;;;;23.07;59.79;101205.25;1033109;28;646;-76
2022/09/06 04:18:12;;;;;;;;;;;;;;;23.08;59.53;101209.69;1032650;28;1498;-73
2022/09/06 04:19:03;;;;;;;;;;;;;;;23.06;59.44;101214.44;1029988;28;674;-76
2022/09/06 04:19:53;;;;;;;;;;;;;;;23.08;59.44;101215.97;1028823;28;1890;-76
2022/09/06 04:20:44;;;;;;;;;;;;;;;23.05;59.34;101216.31;1029630;28;620;-75
2022/09/06 04:21:34;;;;;;;;;;;;;;;23.05;59.11;101219.03;1029551;28;606;-75
2022/09/06 04:22:25;;;;;;;;;;;;;;;23.05;59.93;101215.47;1029657;28;662;-75
2022/09/06 04:23:15;;;;;;;;;;;;;;;23.03;60.08;101221.06;1029455;28;736;-75
2022/09/06 04:24:06;;;;;;;;;;;;;;;22.93;60.33;101227.72;1028556;28;722;-75
2022/09/06 04:24:57;;;;;;;;;;;;;;;22.94;60.14;101222.06;1029255;28;717;-75
2022/09/06 04:25:47;;;;;;;;;;;;;;;22.82;60.30;101226.16;1029306;28;634;-75